Overview Statistics Trail Chart Weather Telemetry Raw packets
 

This is the latest recevied weather packets stored in our database for station/object AD0YN. If no packets are shown the sender has not sent any weather packets the latest 10 day(s).

<< 106 107 108 109 110 111 112 >>
Time Temp. Humidity Pressure Rain* Wind** Luminosity Snow
1787759655 28.89° C 75% 1016.6 hPa 0 mm - 610 W/m² -
1787759352 28.89° C 74% 1016.6 hPa 0 mm - 597 W/m² -
1787759052 28.89° C 75% 1016.4 hPa 0 mm - 586 W/m² -
1787758751 28.89° C 75% 1016.5 hPa 0 mm - 576 W/m² -
1787758446 28.33° C 77% 1016.7 hPa 0 mm - 562 W/m² -
1787758146 28.33° C 78% 1016.6 hPa 0 mm - 548 W/m² -
1787757842 28.33° C 78% 1016.7 hPa 0 mm - 531 W/m² -
1787757231 27.22° C 84% 1016.5 hPa 0 mm - 496 W/m² -
1787756929 26.67° C 82% 1016.9 hPa 0 mm - 487 W/m² -
1787756626 27.22° C 81% 1016.7 hPa 0 mm - 474 W/m² -
1787756325 27.22° C 83% 1016.5 hPa 0 mm - 458 W/m² -
1787756024 26.67° C 86% 1016.5 hPa 0 mm - 509 W/m² -
1787755719 26.11° C 90% 1016.5 hPa 0 mm - 531 W/m² -
1787755415 25° C 94% 1016.6 hPa 0 mm - 546 W/m² -
1787755114 25° C 96% 1016.5 hPa 0 mm - 554 W/m² -
1787754814 24.44° C 97% 1016.4 hPa 0 mm - 579 W/m² -
1787754513 24.44° C 97% 1016.3 hPa 0 mm - 549 W/m² -
1787754212 23.89° C 97% 1016.5 hPa 0 mm - 375 W/m² -
1787753907 23.89° C 97% 1016.4 hPa 0 mm - 294 W/m² -
1787753606 23.33° C 98% 1016.5 hPa 0 mm - 249 W/m² -
1787753305 23.33° C 97% 1016.5 hPa 0 mm - 223 W/m² -
1787753000 23.33° C 98% 1016.5 hPa 0 mm - 186 W/m² -
1787752699 23.33° C 98% 1016.5 hPa 0 mm - 201 W/m² -
1787752395 22.78° C 98% 1016.4 hPa 0 mm - 223 W/m² -
1787752095 22.78° C 98% 1016.5 hPa 0 mm - 156 W/m² -

* Rain latest hour (hover to see other rain measurements)
** Current wind speed in m/s (hover to see current wind gust speed)